Hesperia, CA (92340)

03:11 PDT le 24 août 2016 (GMT -0700)
APRSWXNET | | Change Station

Alt. 3051 ft 34.42 °N, 117.27 °W | Updated 36 minutes ago

Clear
Ciel dégagé
67 ° F
Paraît 67 ° F
N
4
Vent Variable Vent de OSO
Gusts 7.0 mph

Aujourd'hui
Haut(e) -- | Bas -- ° F
--% Risque de précip.
Hier
Haut(e) -- | Bas -- ° F
Precip. -- pouce
Pression 30.10 pouce
Visibilité 10.0 Miles terrestres
Nuages Ciel dégagé
Point de rosée 49 ° F
Humidité 52%
Précipitations pouce
Profondeur de la couche neigeuse Non disponible.
6:17 AM 7:24 PM
Lune gibbeuse décroissante, 58% visible
METAR KVCV 240955Z AUTO 00000KT 10SM CLR 22/04 A3010 RMK AO2
Pression 30.10 pouce
Visibilité 10.0 Miles terrestres
Nuages Ciel dégagé
Point de rosée 49 ° F
Humidité 52%
Précipitations pouce
Profondeur de la couche neigeuse Non disponible.
6:17 AM 7:24 PM
Lune gibbeuse décroissante, 58% visible
METAR KVCV 240955Z AUTO 00000KT 10SM CLR 22/04 A3010 RMK AO2

10-Day Weather Forecast

Almanac

Astronomie

Aug. 24, 2016 Lever Coucher
Temps réel
Crépuscule civil
Crépuscule nautique
Crépuscule astronomique
Lune
Durée de lumière visible
Longueur du jour
Tomorrow will be .
, % of the Moon is Illuminated

Extrêmes aujourd'hui

State Highs State Lows

Community

WunderPhotos

Upload Photos

1,934,560 Photos téléchargées !

WunderBlog® & News

Nearby

Qualité de l'air

  Qualité de l'air Indice de la qualité de l'air Polluant
Not available.

Épaisseur de neige

Station Depth Altitude

Activité sismique

Ville Distance Mag. Time & Date
Minimum magnitude displayed is 2.5.

Températures des eaux côtières

Lieu Température

Stations

Stations météo à proximité

Emplacement de la station Température Refroidissement éolien Point de rosée Humidité Vent Precip. Alt. Mise à jour Type
                   

Watches & Warnings

There are currently no watches in effect.